Charter Quote
Worldwide +1-877-727-2538 Call
Select Language Lang
SAFETY RELIABILITY EXPERIENCE

Private Jet Charter Services - Heihe Airport (ZYHE)

Paramount Business Jets offers private jet charter flights and luxury airliner charters to and from Heihe Airport.

AIRPORT INFORMATION
ICAOZYHE
LOCATIONHeihe, China
FACILITY TYPEAIRPORT

At Paramount Business Jets you can hire chartered private jets to and from Heihe Airport with as little as 4 hours of notice. All flights booked via Paramount Business Jets are operated by certified direct air carriers that meet and exceed the FAA part 135 and 121 protocol or a foreign equivalent safety authority. Furthermore, Paramount Business Jets subscribes to ARGUS for their third party safety checks of operators, aircraft, and crews prior each and every flight to and from Heihe Airport and worldwide.

  • Quote a trip using Heihe Airport or call us 24/7 - 365 days a year at +1-877-727-2538.
Questions? Call +1-877-727-2538

METAR Weather Data at Heihe Airport, ZYHE

STATIONZYHE
OBSERVEDThu Sep 4, 00:00 UTC
NOWSun Nov 17, 06:06 UTC
AGE45606:06 hr ago
WINDNNE at 7 mph
VISIBILITY2.4 miles
CONDITIONSmist
CLOUDSovercast
TEMP61°F (16°C)
DEWPT52°F (11°C)
HUMIDITY72%
BAROMETER1007 hPa (29.74 in Hg)
METARZYHE 040000Z 02003MPS 1500 BR SCT001 SCT003 OVC026 16/11 Q1007 NOSIG

Call us on +1-877-727-2538 (24 Hours) to Hire a Private Jet or Get a Quick Quote.

Find Airports Near any Location

Processing
...